sensor_id;sensor_type;location;lat;lon;timestamp;pressure;altitude;pressure_sealevel;temperature;humidity
42587;BME280;28216;53.362;-6.288;2023-04-15T00:01:21;101176.66;;;7.94;100.00
42587;BME280;28216;53.362;-6.288;2023-04-15T00:03:50;101184.38;;;7.95;100.00
42587;BME280;28216;53.362;-6.288;2023-04-15T00:06:17;101189.31;;;7.98;100.00
42587;BME280;28216;53.362;-6.288;2023-04-15T00:08:44;101191.25;;;7.96;100.00
42587;BME280;28216;53.362;-6.288;2023-04-15T00:11:10;101199.78;;;7.98;100.00
42587;BME280;28216;53.362;-6.288;2023-04-15T00:13:35;101194.53;;;7.98;100.00
42587;BME280;28216;53.362;-6.288;2023-04-15T00:16:01;101199.34;;;7.93;100.00
42587;BME280;28216;53.362;-6.288;2023-04-15T00:18:26;101207.03;;;7.95;100.00
42587;BME280;28216;53.362;-6.288;2023-04-15T00:20:53;101209.09;;;7.91;100.00
42587;BME280;28216;53.362;-6.288;2023-04-15T00:23:19;101223.09;;;7.90;100.00
42587;BME280;28216;53.362;-6.288;2023-04-15T00:25:44;101228.31;;;7.90;100.00
42587;BME280;28216;53.362;-6.288;2023-04-15T00:28:10;101230.38;;;7.87;100.00
42587;BME280;28216;53.362;-6.288;2023-04-15T00:30:35;101227.88;;;7.85;100.00
42587;BME280;28216;53.362;-6.288;2023-04-15T00:33:01;101231.00;;;7.79;100.00
42587;BME280;28216;53.362;-6.288;2023-04-15T00:35:28;101231.41;;;7.75;100.00
42587;BME280;28216;53.362;-6.288;2023-04-15T00:37:53;101223.69;;;7.73;100.00
42587;BME280;28216;53.362;-6.288;2023-04-15T00:40:20;101228.31;;;7.60;100.00
42587;BME280;28216;53.362;-6.288;2023-04-15T00:42:46;101221.31;;;7.60;100.00
42587;BME280;28216;53.362;-6.288;2023-04-15T00:45:12;101234.91;;;7.64;100.00
42587;BME280;28216;53.362;-6.288;2023-04-15T00:47:40;101231.47;;;7.63;100.00
42587;BME280;28216;53.362;-6.288;2023-04-15T00:50:07;101235.03;;;7.62;100.00
42587;BME280;28216;53.362;-6.288;2023-04-15T00:52:32;101237.97;;;7.48;100.00
42587;BME280;28216;53.362;-6.288;2023-04-15T00:54:59;101231.09;;;7.47;100.00
42587;BME280;28216;53.362;-6.288;2023-04-15T00:57:25;101237.41;;;7.45;100.00
42587;BME280;28216;53.362;-6.288;2023-04-15T00:59:51;101231.00;;;7.38;100.00
42587;BME280;28216;53.362;-6.288;2023-04-15T01:02:18;101221.91;;;7.32;100.00
42587;BME280;28216;53.362;-6.288;2023-04-15T01:04:43;101234.13;;;7.31;100.00
42587;BME280;28216;53.362;-6.288;2023-04-15T01:07:09;101239.59;;;7.28;100.00
42587;BME280;28216;53.362;-6.288;2023-04-15T01:09:35;101245.63;;;7.29;100.00
42587;BME280;28216;53.362;-6.288;2023-04-15T01:12:00;101245.06;;;7.25;100.00
42587;BME280;28216;53.362;-6.288;2023-04-15T01:14:27;101250.03;;;7.28;100.00
42587;BME280;28216;53.362;-6.288;2023-04-15T01:16:53;101256.06;;;7.29;100.00
42587;BME280;28216;53.362;-6.288;2023-04-15T01:19:18;101256.44;;;7.24;100.00
42587;BME280;28216;53.362;-6.288;2023-04-15T01:21:44;101257.66;;;7.20;100.00
42587;BME280;28216;53.362;-6.288;2023-04-15T01:24:10;101259.31;;;7.21;100.00
42587;BME280;28216;53.362;-6.288;2023-04-15T01:26:37;101257.19;;;7.15;100.00
42587;BME280;28216;53.362;-6.288;2023-04-15T01:29:03;101257.53;;;7.22;100.00
42587;BME280;28216;53.362;-6.288;2023-04-15T01:31:28;101267.97;;;7.22;100.00
42587;BME280;28216;53.362;-6.288;2023-04-15T01:33:54;101266.06;;;7.24;100.00
42587;BME280;28216;53.362;-6.288;2023-04-15T01:36:19;101268.97;;;7.10;100.00
42587;BME280;28216;53.362;-6.288;2023-04-15T01:38:45;101267.63;;;7.15;100.00
42587;BME280;28216;53.362;-6.288;2023-04-15T01:41:10;101268.47;;;7.16;100.00
42587;BME280;28216;53.362;-6.288;2023-04-15T01:43:37;101277.13;;;7.16;100.00
42587;BME280;28216;53.362;-6.288;2023-04-15T01:46:03;101281.63;;;7.14;100.00
42587;BME280;28216;53.362;-6.288;2023-04-15T01:48:28;101280.69;;;7.15;100.00
42587;BME280;28216;53.362;-6.288;2023-04-15T01:50:54;101287.53;;;7.16;100.00
42587;BME280;28216;53.362;-6.288;2023-04-15T01:53:21;101288.75;;;7.12;100.00
42587;BME280;28216;53.362;-6.288;2023-04-15T01:55:47;101292.19;;;7.13;100.00
42587;BME280;28216;53.362;-6.288;2023-04-15T01:58:12;101298.09;;;7.15;100.00
42587;BME280;28216;53.362;-6.288;2023-04-15T02:00:39;101298.47;;;7.10;100.00
42587;BME280;28216;53.362;-6.288;2023-04-15T02:03:04;101303.81;;;7.09;100.00
42587;BME280;28216;53.362;-6.288;2023-04-15T02:05:30;101312.59;;;7.08;100.00
42587;BME280;28216;53.362;-6.288;2023-04-15T02:07:56;101317.59;;;6.99;100.00
42587;BME280;28216;53.362;-6.288;2023-04-15T02:10:22;101314.88;;;6.90;100.00
42587;BME280;28216;53.362;-6.288;2023-04-15T02:12:47;101318.44;;;6.89;100.00
42587;BME280;28216;53.362;-6.288;2023-04-15T02:15:13;101313.72;;;6.83;100.00
42587;BME280;28216;53.362;-6.288;2023-04-15T02:17:38;101320.72;;;6.82;100.00
42587;BME280;28216;53.362;-6.288;2023-04-15T02:20:04;101323.31;;;6.82;100.00
42587;BME280;28216;53.362;-6.288;2023-04-15T02:22:30;101326.16;;;6.79;100.00
42587;BME280;28216;53.362;-6.288;2023-04-15T02:24:56;101323.44;;;6.81;100.00
42587;BME280;28216;53.362;-6.288;2023-04-15T02:27:22;101325.56;;;6.76;100.00
42587;BME280;28216;53.362;-6.288;2023-04-15T02:29:47;101317.38;;;6.80;100.00
42587;BME280;28216;53.362;-6.288;2023-04-15T02:32:15;101321.66;;;6.81;100.00
42587;BME280;28216;53.362;-6.288;2023-04-15T02:34:41;101318.47;;;6.78;100.00
42587;BME280;28216;53.362;-6.288;2023-04-15T02:37:08;101325.34;;;6.79;100.00
42587;BME280;28216;53.362;-6.288;2023-04-15T02:39:34;101324.50;;;6.78;100.00
42587;BME280;28216;53.362;-6.288;2023-04-15T02:41:59;101327.00;;;6.80;100.00
42587;BME280;28216;53.362;-6.288;2023-04-15T02:44:28;101338.47;;;6.77;100.00
42587;BME280;28216;53.362;-6.288;2023-04-15T02:46:54;101336.81;;;6.76;100.00
42587;BME280;28216;53.362;-6.288;2023-04-15T02:49:20;101335.16;;;6.75;100.00
42587;BME280;28216;53.362;-6.288;2023-04-15T02:51:45;101338.47;;;6.77;100.00
42587;BME280;28216;53.362;-6.288;2023-04-15T02:54:17;101344.06;;;6.73;100.00
42587;BME280;28216;53.362;-6.288;2023-04-15T02:56:43;101341.91;;;6.66;100.00
42587;BME280;28216;53.362;-6.288;2023-04-15T02:59:08;101344.75;;;6.63;100.00
42587;BME280;28216;53.362;-6.288;2023-04-15T03:01:34;101347.22;;;6.65;100.00
42587;BME280;28216;53.362;-6.288;2023-04-15T03:03:59;101353.88;;;6.58;100.00
42587;BME280;28216;53.362;-6.288;2023-04-15T03:06:24;101355.16;;;6.52;100.00
42587;BME280;28216;53.362;-6.288;2023-04-15T03:08:50;101367.84;;;6.57;100.00
42587;BME280;28216;53.362;-6.288;2023-04-15T03:11:16;101372.22;;;6.56;100.00
42587;BME280;28216;53.362;-6.288;2023-04-15T03:13:42;101371.16;;;6.59;100.00
42587;BME280;28216;53.362;-6.288;2023-04-15T03:16:08;101366.78;;;6.59;100.00
42587;BME280;28216;53.362;-6.288;2023-04-15T03:18:33;101378.03;;;6.60;100.00
42587;BME280;28216;53.362;-6.288;2023-04-15T03:20:59;101379.81;;;6.59;100.00
42587;BME280;28216;53.362;-6.288;2023-04-15T03:23:25;101389.88;;;6.53;100.00
42587;BME280;28216;53.362;-6.288;2023-04-15T03:25:50;101387.38;;;6.51;100.00
42587;BME280;28216;53.362;-6.288;2023-04-15T03:28:16;101398.63;;;6.52;100.00
42587;BME280;28216;53.362;-6.288;2023-04-15T03:30:41;101396.59;;;6.44;100.00
42587;BME280;28216;53.362;-6.288;2023-04-15T03:33:07;101402.75;;;6.43;100.00
42587;BME280;28216;53.362;-6.288;2023-04-15T03:35:33;101418.03;;;6.48;100.00
42587;BME280;28216;53.362;-6.288;2023-04-15T03:37:58;101409.03;;;6.41;100.00
42587;BME280;28216;53.362;-6.288;2023-04-15T03:40:24;101410.56;;;6.43;100.00
42587;BME280;28216;53.362;-6.288;2023-04-15T03:42:49;101410.22;;;6.36;100.00
42587;BME280;28216;53.362;-6.288;2023-04-15T03:45:15;101414.38;;;6.39;100.00
42587;BME280;28216;53.362;-6.288;2023-04-15T03:47:40;101416.97;;;6.39;100.00
42587;BME280;28216;53.362;-6.288;2023-04-15T03:50:06;101412.81;;;6.36;100.00
42587;BME280;28216;53.362;-6.288;2023-04-15T03:52:32;101425.00;;;6.36;100.00
42587;BME280;28216;53.362;-6.288;2023-04-15T03:54:58;101429.75;;;6.31;100.00
42587;BME280;28216;53.362;-6.288;2023-04-15T03:57:23;101430.81;;;6.28;100.00
42587;BME280;28216;53.362;-6.288;2023-04-15T03:59:48;101437.06;;;6.26;100.00
42587;BME280;28216;53.362;-6.288;2023-04-15T04:02:14;101435.03;;;6.18;100.00
42587;BME280;28216;53.362;-6.288;2023-04-15T04:04:39;101436.59;;;6.21;100.00
42587;BME280;28216;53.362;-6.288;2023-04-15T04:07:05;101434.81;;;6.21;100.00
42587;BME280;28216;53.362;-6.288;2023-04-15T04:09:30;101439.41;;;6.18;100.00
42587;BME280;28216;53.362;-6.288;2023-04-15T04:11:56;101437.53;;;6.20;100.00
42587;BME280;28216;53.362;-6.288;2023-04-15T04:14:22;101448.88;;;6.19;100.00
42587;BME280;28216;53.362;-6.288;2023-04-15T04:16:53;101434.22;;;6.18;100.00
42587;BME280;28216;53.362;-6.288;2023-04-15T04:19:19;101441.69;;;6.22;100.00
42587;BME280;28216;53.362;-6.288;2023-04-15T04:21:44;101447.81;;;6.21;100.00
42587;BME280;28216;53.362;-6.288;2023-04-15T04:24:10;101448.53;;;6.23;100.00
42587;BME280;28216;53.362;-6.288;2023-04-15T04:26:36;101455.63;;;6.21;100.00
42587;BME280;28216;53.362;-6.288;2023-04-15T04:29:01;101458.34;;;6.20;100.00
42587;BME280;28216;53.362;-6.288;2023-04-15T04:31:27;101466.63;;;6.14;100.00
42587;BME280;28216;53.362;-6.288;2023-04-15T04:33:52;101460.69;;;6.12;100.00
42587;BME280;28216;53.362;-6.288;2023-04-15T04:36:18;101453.84;;;6.11;100.00
42587;BME280;28216;53.362;-6.288;2023-04-15T04:38:43;101457.59;;;6.07;100.00
42587;BME280;28216;53.362;-6.288;2023-04-15T04:41:08;101468.25;;;6.03;100.00
42587;BME280;28216;53.362;-6.288;2023-04-15T04:43:34;101468.84;;;6.07;100.00
42587;BME280;28216;53.362;-6.288;2023-04-15T04:46:00;101470.84;;;6.03;100.00
42587;BME280;28216;53.362;-6.288;2023-04-15T04:48:25;101477.00;;;6.02;100.00
42587;BME280;28216;53.362;-6.288;2023-04-15T04:50:51;101473.34;;;6.05;100.00
42587;BME280;28216;53.362;-6.288;2023-04-15T04:53:17;101469.41;;;5.99;100.00
42587;BME280;28216;53.362;-6.288;2023-04-15T04:55:43;101475.56;;;5.98;100.00
42587;BME280;28216;53.362;-6.288;2023-04-15T04:58:08;101480.16;;;5.95;100.00
42587;BME280;28216;53.362;-6.288;2023-04-15T05:00:34;101483.78;;;5.92;100.00
42587;BME280;28216;53.362;-6.288;2023-04-15T05:02:59;101482.84;;;5.93;100.00
42587;BME280;28216;53.362;-6.288;2023-04-15T05:05:25;101480.16;;;5.95;100.00
42587;BME280;28216;53.362;-6.288;2023-04-15T05:07:51;101475.44;;;5.87;100.00
42587;BME280;28216;53.362;-6.288;2023-04-15T05:10:16;101484.63;;;5.93;100.00
42587;BME280;28216;53.362;-6.288;2023-04-15T05:12:42;101495.13;;;5.91;100.00
42587;BME280;28216;53.362;-6.288;2023-04-15T05:15:08;101492.53;;;5.91;100.00
42587;BME280;28216;53.362;-6.288;2023-04-15T05:17:34;101499.50;;;5.91;100.00
42587;BME280;28216;53.362;-6.288;2023-04-15T05:20:00;101499.41;;;5.92;100.00
42587;BME280;28216;53.362;-6.288;2023-04-15T05:22:26;101502.31;;;5.88;100.00
42587;BME280;28216;53.362;-6.288;2023-04-15T05:24:52;101501.59;;;5.86;100.00
42587;BME280;28216;53.362;-6.288;2023-04-15T05:27:17;101514.59;;;5.86;100.00
42587;BME280;28216;53.362;-6.288;2023-04-15T05:29:43;101524.91;;;5.87;100.00
42587;BME280;28216;53.362;-6.288;2023-04-15T05:32:09;101526.47;;;5.90;100.00
42587;BME280;28216;53.362;-6.288;2023-04-15T05:34:35;101537.63;;;5.92;100.00
42587;BME280;28216;53.362;-6.288;2023-04-15T05:37:00;101547.84;;;5.95;100.00
42587;BME280;28216;53.362;-6.288;2023-04-15T05:39:26;101546.06;;;5.95;100.00
42587;BME280;28216;53.362;-6.288;2023-04-15T05:41:52;101549.56;;;5.94;100.00
42587;BME280;28216;53.362;-6.288;2023-04-15T05:44:17;101547.09;;;5.93;100.00
42587;BME280;28216;53.362;-6.288;2023-04-15T05:46:43;101552.94;;;5.96;100.00
42587;BME280;28216;53.362;-6.288;2023-04-15T05:49:08;101556.38;;;5.97;100.00
42587;BME280;28216;53.362;-6.288;2023-04-15T05:51:33;101559.69;;;5.99;100.00
42587;BME280;28216;53.362;-6.288;2023-04-15T05:54:00;101560.53;;;5.99;100.00
42587;BME280;28216;53.362;-6.288;2023-04-15T05:56:25;101563.00;;;6.01;100.00
42587;BME280;28216;53.362;-6.288;2023-04-15T05:58:51;101559.25;;;6.05;100.00
42587;BME280;28216;53.362;-6.288;2023-04-15T06:01:17;101571.09;;;6.09;100.00
42587;BME280;28216;53.362;-6.288;2023-04-15T06:03:42;101577.97;;;6.10;100.00
42587;BME280;28216;53.362;-6.288;2023-04-15T06:06:08;101589.09;;;6.12;100.00
42587;BME280;28216;53.362;-6.288;2023-04-15T06:08:34;101594.81;;;6.17;100.00
42587;BME280;28216;53.362;-6.288;2023-04-15T06:10:59;101596.47;;;6.18;100.00
42587;BME280;28216;53.362;-6.288;2023-04-15T06:13:25;101594.38;;;6.23;100.00
42587;BME280;28216;53.362;-6.288;2023-04-15T06:15:51;101590.72;;;6.26;100.00
42587;BME280;28216;53.362;-6.288;2023-04-15T06:18:17;101601.63;;;6.31;100.00
42587;BME280;28216;53.362;-6.288;2023-04-15T06:20:44;101607.56;;;6.33;100.00
42587;BME280;28216;53.362;-6.288;2023-04-15T06:23:10;101607.34;;;6.36;100.00
42587;BME280;28216;53.362;-6.288;2023-04-15T06:25:35;101607.81;;;6.41;100.00
42587;BME280;28216;53.362;-6.288;2023-04-15T06:28:01;101603.13;;;6.46;100.00
42587;BME280;28216;53.362;-6.288;2023-04-15T06:30:26;101611.69;;;6.59;100.00
42587;BME280;28216;53.362;-6.288;2023-04-15T06:32:52;101617.09;;;6.69;100.00
42587;BME280;28216;53.362;-6.288;2023-04-15T06:35:17;101625.78;;;6.81;100.00
42587;BME280;28216;53.362;-6.288;2023-04-15T06:37:43;101631.03;;;6.92;100.00
42587;BME280;28216;53.362;-6.288;2023-04-15T06:40:09;101632.63;;;7.17;100.00
42587;BME280;28216;53.362;-6.288;2023-04-15T06:42:34;101638.34;;;8.00;100.00
42587;BME280;28216;53.362;-6.288;2023-04-15T06:45:01;101639.75;;;8.90;100.00
42587;BME280;28216;53.362;-6.288;2023-04-15T06:47:26;101640.81;;;9.71;100.00
42587;BME280;28216;53.362;-6.288;2023-04-15T06:49:55;101633.19;;;10.48;100.00
42587;BME280;28216;53.362;-6.288;2023-04-15T06:52:20;101642.53;;;11.09;100.00
42587;BME280;28216;53.362;-6.288;2023-04-15T06:54:46;101645.97;;;11.66;100.00
42587;BME280;28216;53.362;-6.288;2023-04-15T06:57:11;101639.31;;;12.08;100.00
42587;BME280;28216;53.362;-6.288;2023-04-15T06:59:37;101635.50;;;12.38;100.00
42587;BME280;28216;53.362;-6.288;2023-04-15T07:02:02;101631.25;;;12.73;100.00
42587;BME280;28216;53.362;-6.288;2023-04-15T07:04:28;101640.38;;;13.04;100.00
42587;BME280;28216;53.362;-6.288;2023-04-15T07:06:53;101641.03;;;13.24;100.00
42587;BME280;28216;53.362;-6.288;2023-04-15T07:09:21;101639.78;;;13.62;100.00
42587;BME280;28216;53.362;-6.288;2023-04-15T07:11:46;101643.44;;;13.70;100.00
42587;BME280;28216;53.362;-6.288;2023-04-15T07:14:12;101653.69;;;14.15;100.00
42587;BME280;28216;53.362;-6.288;2023-04-15T07:16:37;101657.56;;;14.45;100.00
42587;BME280;28216;53.362;-6.288;2023-04-15T07:19:05;101659.38;;;14.52;100.00
42587;BME280;28216;53.362;-6.288;2023-04-15T07:21:34;101659.56;;;14.59;100.00
42587;BME280;28216;53.362;-6.288;2023-04-15T07:24:00;101663.84;;;14.52;100.00
42587;BME280;28216;53.362;-6.288;2023-04-15T07:26:25;101658.25;;;14.71;100.00
42587;BME280;28216;53.362;-6.288;2023-04-15T07:28:51;101678.75;;;15.02;100.00
42587;BME280;28216;53.362;-6.288;2023-04-15T07:31:16;101675.78;;;14.88;100.00
42587;BME280;28216;53.362;-6.288;2023-04-15T07:33:42;101681.22;;;15.03;100.00
42587;BME280;28216;53.362;-6.288;2023-04-15T07:36:08;101681.22;;;15.03;100.00
42587;BME280;28216;53.362;-6.288;2023-04-15T07:38:33;101685.63;;;15.43;100.00
42587;BME280;28216;53.362;-6.288;2023-04-15T07:40:59;101692.72;;;15.59;100.00
42587;BME280;28216;53.362;-6.288;2023-04-15T07:43:24;101699.78;;;15.83;100.00
42587;BME280;28216;53.362;-6.288;2023-04-15T07:45:50;101698.13;;;15.82;100.00
42587;BME280;28216;53.362;-6.288;2023-04-15T07:48:15;101706.91;;;15.74;100.00
42587;BME280;28216;53.362;-6.288;2023-04-15T07:50:41;101698.63;;;15.85;100.00
42587;BME280;28216;53.362;-6.288;2023-04-15T07:53:06;101710.06;;;15.70;100.00
42587;BME280;28216;53.362;-6.288;2023-04-15T07:55:31;101712.06;;;15.68;100.00
42587;BME280;28216;53.362;-6.288;2023-04-15T07:57:57;101713.47;;;15.95;100.00
42587;BME280;28216;53.362;-6.288;2023-04-15T08:00:22;101719.78;;;16.25;98.95
42587;BME280;28216;53.362;-6.288;2023-04-15T08:02:51;101714.72;;;16.46;94.65
42587;BME280;28216;53.362;-6.288;2023-04-15T08:05:18;101717.97;;;16.56;95.55
42587;BME280;28216;53.362;-6.288;2023-04-15T08:07:44;101719.19;;;16.76;93.01
42587;BME280;28216;53.362;-6.288;2023-04-15T08:10:10;101720.53;;;16.95;90.87
42587;BME280;28216;53.362;-6.288;2023-04-15T08:12:36;101725.31;;;16.77;92.51
42587;BME280;28216;53.362;-6.288;2023-04-15T08:15:02;101722.44;;;16.87;92.34
42587;BME280;28216;53.362;-6.288;2023-04-15T08:17:28;101729.19;;;16.66;92.83
42587;BME280;28216;53.362;-6.288;2023-04-15T08:19:53;101719.78;;;16.56;93.35
42587;BME280;28216;53.362;-6.288;2023-04-15T08:22:19;101718.78;;;16.57;92.83
42587;BME280;28216;53.362;-6.288;2023-04-15T08:24:44;101714.72;;;16.77;92.15
42587;BME280;28216;53.362;-6.288;2023-04-15T08:27:10;101721.31;;;16.81;91.67
42587;BME280;28216;53.362;-6.288;2023-04-15T08:29:35;101722.53;;;16.70;92.39
42587;BME280;28216;53.362;-6.288;2023-04-15T08:32:01;101722.75;;;16.61;93.48
42587;BME280;28216;53.362;-6.288;2023-04-15T08:34:27;101718.31;;;16.53;93.43
42587;BME280;28216;53.362;-6.288;2023-04-15T08:36:52;101730.50;;;16.70;91.24
42587;BME280;28216;53.362;-6.288;2023-04-15T08:39:18;101729.06;;;16.82;87.23
42587;BME280;28216;53.362;-6.288;2023-04-15T08:41:46;101725.31;;;17.00;87.50
42587;BME280;28216;53.362;-6.288;2023-04-15T08:44:13;101725.06;;;16.87;87.34
42587;BME280;28216;53.362;-6.288;2023-04-15T08:46:40;101734.25;;;16.99;84.66
42587;BME280;28216;53.362;-6.288;2023-04-15T08:49:09;101737.56;;;16.47;88.34
42587;BME280;28216;53.362;-6.288;2023-04-15T08:51:35;101740.66;;;16.11;91.03
42587;BME280;28216;53.362;-6.288;2023-04-15T08:54:01;101743.50;;;16.10;90.00
42587;BME280;28216;53.362;-6.288;2023-04-15T08:56:30;101742.25;;;15.89;91.75
42587;BME280;28216;53.362;-6.288;2023-04-15T08:58:57;101745.41;;;15.77;91.57
42587;BME280;28216;53.362;-6.288;2023-04-15T09:01:23;101754.69;;;15.73;93.43
42587;BME280;28216;53.362;-6.288;2023-04-15T09:03:49;101748.06;;;15.44;93.09
42587;BME280;28216;53.362;-6.288;2023-04-15T09:06:16;101748.69;;;15.54;91.92
42587;BME280;28216;53.362;-6.288;2023-04-15T09:08:42;101753.50;;;15.51;92.13
42587;BME280;28216;53.362;-6.288;2023-04-15T09:11:08;101756.00;;;15.36;94.36
42587;BME280;28216;53.362;-6.288;2023-04-15T09:13:33;101746.75;;;15.32;95.93
42587;BME280;28216;53.362;-6.288;2023-04-15T09:16:01;101752.50;;;15.44;95.34
42587;BME280;28216;53.362;-6.288;2023-04-15T09:18:38;101757.66;;;15.21;99.57
42587;BME280;28216;53.362;-6.288;2023-04-15T09:21:12;101757.66;;;15.21;97.31
42587;BME280;28216;53.362;-6.288;2023-04-15T09:23:39;101761.28;;;15.28;96.91
42587;BME280;28216;53.362;-6.288;2023-04-15T09:26:06;101759.63;;;15.27;96.58
42587;BME280;28216;53.362;-6.288;2023-04-15T09:28:32;101765.75;;;15.36;98.39
42587;BME280;28216;53.362;-6.288;2023-04-15T09:31:00;101770.69;;;15.47;96.29
42587;BME280;28216;53.362;-6.288;2023-04-15T09:33:27;101775.16;;;15.38;94.18
42587;BME280;28216;53.362;-6.288;2023-04-15T09:35:59;101775.97;;;15.55;89.06
42587;BME280;28216;53.362;-6.288;2023-04-15T09:38:25;101772.66;;;15.53;87.69
42587;BME280;28216;53.362;-6.288;2023-04-15T09:40:51;101774.16;;;15.47;89.06
42587;BME280;28216;53.362;-6.288;2023-04-15T09:43:16;101774.50;;;15.69;88.68
42587;BME280;28216;53.362;-6.288;2023-04-15T09:45:49;101775.97;;;15.55;86.02
42587;BME280;28216;53.362;-6.288;2023-04-15T09:48:21;101773.97;;;15.57;86.54
42587;BME280;28216;53.362;-6.288;2023-04-15T09:50:47;101777.16;;;15.61;87.18
42587;BME280;28216;53.362;-6.288;2023-04-15T09:53:18;101769.41;;;15.67;86.35
42587;BME280;28216;53.362;-6.288;2023-04-15T09:55:58;101782.63;;;15.67;85.38
42587;BME280;28216;53.362;-6.288;2023-04-15T09:58:27;101773.97;;;15.57;87.63
42587;BME280;28216;53.362;-6.288;2023-04-15T10:00:54;101771.00;;;15.52;87.30
42587;BME280;28216;53.362;-6.288;2023-04-15T10:03:23;101772.50;;;15.54;86.03
42587;BME280;28216;53.362;-6.288;2023-04-15T10:05:50;101773.81;;;15.18;88.04
42587;BME280;28216;53.362;-6.288;2023-04-15T10:08:18;101780.09;;;15.09;87.97
42587;BME280;28216;53.362;-6.288;2023-04-15T10:10:45;101775.97;;;15.22;87.50
42587;BME280;28216;53.362;-6.288;2023-04-15T10:13:17;101769.22;;;15.28;87.16
42587;BME280;28216;53.362;-6.288;2023-04-15T10:15:44;101769.19;;;15.44;87.54
42587;BME280;28216;53.362;-6.288;2023-04-15T10:18:15;101778.94;;;15.44;87.78
42587;BME280;28216;53.362;-6.288;2023-04-15T10:20:41;101784.72;;;15.39;86.94
42587;BME280;28216;53.362;-6.288;2023-04-15T10:23:08;101781.59;;;15.60;87.92
42587;BME280;28216;53.362;-6.288;2023-04-15T10:25:34;101782.56;;;15.51;86.96
42587;BME280;28216;53.362;-6.288;2023-04-15T10:28:01;101779.47;;;15.64;86.38
42587;BME280;28216;53.362;-6.288;2023-04-15T10:30:27;101776.00;;;15.71;84.11
42587;BME280;28216;53.362;-6.288;2023-04-15T10:32:53;101772.38;;;15.64;84.18
42587;BME280;28216;53.362;-6.288;2023-04-15T10:35:21;101777.28;;;15.51;82.86
42587;BME280;28216;53.362;-6.288;2023-04-15T10:37:47;101787.03;;;15.50;82.36
42587;BME280;28216;53.362;-6.288;2023-04-15T10:40:29;101791.66;;;15.32;82.43
42587;BME280;28216;53.362;-6.288;2023-04-15T10:43:00;101789.69;;;15.10;85.54
42587;BME280;28216;53.362;-6.288;2023-04-15T10:45:48;101785.88;;;14.96;87.31
42587;BME280;28216;53.362;-6.288;2023-04-15T10:48:15;101785.38;;;15.17;87.32
42587;BME280;28216;53.362;-6.288;2023-04-15T10:50:55;101788.53;;;15.29;85.94
42587;BME280;28216;53.362;-6.288;2023-04-15T10:53:30;101797.09;;;15.14;83.52
42587;BME280;28216;53.362;-6.288;2023-04-15T10:55:58;101786.72;;;15.21;83.74
42587;BME280;28216;53.362;-6.288;2023-04-15T10:58:24;101788.38;;;15.22;84.55
42587;BME280;28216;53.362;-6.288;2023-04-15T11:00:53;101788.69;;;15.11;85.06
42587;BME280;28216;53.362;-6.288;2023-04-15T11:03:39;101788.03;;;15.25;81.57
42587;BME280;28216;53.362;-6.288;2023-04-15T11:06:05;101796.13;;;15.32;76.88
42587;BME280;28216;53.362;-6.288;2023-04-15T11:08:52;101796.94;;;15.16;78.49
42587;BME280;28216;53.362;-6.288;2023-04-15T11:11:17;101802.38;;;15.06;81.17
42587;BME280;28216;53.362;-6.288;2023-04-15T11:13:48;101799.75;;;15.14;82.59
42587;BME280;28216;53.362;-6.288;2023-04-15T11:16:14;101791.16;;;14.96;85.63
42587;BME280;28216;53.362;-6.288;2023-04-15T11:18:40;101793.25;;;14.84;88.11
42587;BME280;28216;53.362;-6.288;2023-04-15T11:21:06;101792.41;;;14.84;89.67
42587;BME280;28216;53.362;-6.288;2023-04-15T11:23:40;101800.88;;;14.96;85.10
42587;BME280;28216;53.362;-6.288;2023-04-15T11:26:11;101791.41;;;14.85;82.57
42587;BME280;28216;53.362;-6.288;2023-04-15T11:28:38;101786.63;;;14.80;81.28
42587;BME280;28216;53.362;-6.288;2023-04-15T11:31:06;101789.16;;;14.98;81.86
42587;BME280;28216;53.362;-6.288;2023-04-15T11:33:32;101795.78;;;14.18;83.93
42587;BME280;28216;53.362;-6.288;2023-04-15T11:35:58;101800.28;;;14.68;82.54
42587;BME280;28216;53.362;-6.288;2023-04-15T11:38:23;101804.53;;;14.18;91.35
42587;BME280;28216;53.362;-6.288;2023-04-15T11:40:50;101809.34;;;14.57;90.59
42587;BME280;28216;53.362;-6.288;2023-04-15T11:48:18;101806.59;;;14.75;88.05
42587;BME280;28216;53.362;-6.288;2023-04-15T11:50:44;101811.69;;;14.68;85.54
42587;BME280;28216;53.362;-6.288;2023-04-15T11:53:11;101809.19;;;14.67;85.15
42587;BME280;28216;53.362;-6.288;2023-04-15T11:55:45;101811.00;;;14.66;82.99
42587;BME280;28216;53.362;-6.288;2023-04-15T11:58:18;101802.75;;;14.61;85.71
42587;BME280;28216;53.362;-6.288;2023-04-15T12:00:52;101812.31;;;14.62;86.16
42587;BME280;28216;53.362;-6.288;2023-04-15T12:06:19;101803.88;;;14.50;81.07
42587;BME280;28216;53.362;-6.288;2023-04-15T12:16:22;101808.34;;;14.24;100.00
42587;BME280;28216;53.362;-6.288;2023-04-15T12:18:52;101814.13;;;14.27;100.00
42587;BME280;28216;53.362;-6.288;2023-04-15T12:21:21;101797.03;;;14.40;100.00
42587;BME280;28216;53.362;-6.288;2023-04-15T12:23:55;101803.84;;;14.42;100.00
42587;BME280;28216;53.362;-6.288;2023-04-15T12:26:33;101805.03;;;14.22;100.00
42587;BME280;28216;53.362;-6.288;2023-04-15T12:29:00;101802.19;;;14.15;100.00
42587;BME280;28216;53.362;-6.288;2023-04-15T12:31:26;101803.53;;;14.19;100.00
42587;BME280;28216;53.362;-6.288;2023-04-15T12:33:54;101811.44;;;13.93;100.00
42587;BME280;28216;53.362;-6.288;2023-04-15T12:36:20;101818.94;;;14.06;100.00
42587;BME280;28216;53.362;-6.288;2023-04-15T12:38:46;101815.56;;;13.96;100.00
42587;BME280;28216;53.362;-6.288;2023-04-15T12:41:11;101822.16;;;13.92;100.00
42587;BME280;28216;53.362;-6.288;2023-04-15T12:43:37;101818.34;;;14.12;100.00
42587;BME280;28216;53.362;-6.288;2023-04-15T12:46:02;101813.25;;;14.19;100.00
42587;BME280;28216;53.362;-6.288;2023-04-15T12:48:29;101817.19;;;14.15;100.00
42587;BME280;28216;53.362;-6.288;2023-04-15T12:50:54;101816.06;;;14.17;100.00